sensor_id;sensor_type;location;lat;lon;timestamp;temperature;humidity
18974;DHT22;9621;48.690;9.466;2022-07-29T00:00:39;16.10;99.90
18974;DHT22;9621;48.690;9.466;2022-07-29T00:03:06;16.10;99.90
18974;DHT22;9621;48.690;9.466;2022-07-29T00:05:34;16.20;99.90
18974;DHT22;9621;48.690;9.466;2022-07-29T00:08:01;16.20;99.90
18974;DHT22;9621;48.690;9.466;2022-07-29T00:10:29;16.20;99.90
18974;DHT22;9621;48.690;9.466;2022-07-29T00:12:55;16.20;99.90
18974;DHT22;9621;48.690;9.466;2022-07-29T00:15:22;16.20;99.90
18974;DHT22;9621;48.690;9.466;2022-07-29T00:17:49;16.20;99.90
18974;DHT22;9621;48.690;9.466;2022-07-29T00:20:16;16.20;99.90
18974;DHT22;9621;48.690;9.466;2022-07-29T00:22:45;16.30;99.90
18974;DHT22;9621;48.690;9.466;2022-07-29T00:25:13;16.30;99.90
18974;DHT22;9621;48.690;9.466;2022-07-29T00:27:39;16.30;99.90
18974;DHT22;9621;48.690;9.466;2022-07-29T00:30:07;16.30;99.90
18974;DHT22;9621;48.690;9.466;2022-07-29T00:32:34;16.30;99.90
18974;DHT22;9621;48.690;9.466;2022-07-29T00:35:01;16.30;99.90
18974;DHT22;9621;48.690;9.466;2022-07-29T00:37:49;16.30;99.90
18974;DHT22;9621;48.690;9.466;2022-07-29T00:40:16;16.30;99.90
18974;DHT22;9621;48.690;9.466;2022-07-29T00:42:43;16.30;99.90
18974;DHT22;9621;48.690;9.466;2022-07-29T00:45:11;16.30;99.90
18974;DHT22;9621;48.690;9.466;2022-07-29T00:47:38;16.30;99.90
18974;DHT22;9621;48.690;9.466;2022-07-29T00:50:07;16.30;99.90
18974;DHT22;9621;48.690;9.466;2022-07-29T00:52:37;16.30;99.90
18974;DHT22;9621;48.690;9.466;2022-07-29T00:55:07;16.30;99.90
18974;DHT22;9621;48.690;9.466;2022-07-29T00:57:35;16.30;99.90
18974;DHT22;9621;48.690;9.466;2022-07-29T01:00:04;16.30;99.90
18974;DHT22;9621;48.690;9.466;2022-07-29T01:02:31;16.30;99.90
18974;DHT22;9621;48.690;9.466;2022-07-29T01:04:58;16.30;99.90
18974;DHT22;9621;48.690;9.466;2022-07-29T01:07:26;16.30;99.90
18974;DHT22;9621;48.690;9.466;2022-07-29T01:09:54;16.30;99.90
18974;DHT22;9621;48.690;9.466;2022-07-29T01:12:25;16.30;99.90
18974;DHT22;9621;48.690;9.466;2022-07-29T01:14:53;16.30;99.90
18974;DHT22;9621;48.690;9.466;2022-07-29T01:17:26;16.20;99.90
18974;DHT22;9621;48.690;9.466;2022-07-29T01:19:59;16.20;99.90
18974;DHT22;9621;48.690;9.466;2022-07-29T01:22:35;16.20;99.90
18974;DHT22;9621;48.690;9.466;2022-07-29T01:25:13;16.10;99.90
18974;DHT22;9621;48.690;9.466;2022-07-29T01:27:57;16.10;99.90
18974;DHT22;9621;48.690;9.466;2022-07-29T01:30:30;16.10;99.90
18974;DHT22;9621;48.690;9.466;2022-07-29T01:33:01;16.00;99.90
18974;DHT22;9621;48.690;9.466;2022-07-29T01:35:35;15.90;99.90
18974;DHT22;9621;48.690;9.466;2022-07-29T01:38:06;15.80;99.90
18974;DHT22;9621;48.690;9.466;2022-07-29T01:40:38;15.80;99.90
18974;DHT22;9621;48.690;9.466;2022-07-29T01:43:10;15.70;99.90
18974;DHT22;9621;48.690;9.466;2022-07-29T01:45:41;15.60;99.90
18974;DHT22;9621;48.690;9.466;2022-07-29T01:48:14;15.60;99.90
18974;DHT22;9621;48.690;9.466;2022-07-29T01:50:47;15.50;99.90
18974;DHT22;9621;48.690;9.466;2022-07-29T01:53:29;15.40;99.90
18974;DHT22;9621;48.690;9.466;2022-07-29T01:55:58;15.50;99.90
18974;DHT22;9621;48.690;9.466;2022-07-29T01:58:27;15.40;99.90
18974;DHT22;9621;48.690;9.466;2022-07-29T02:00:57;15.30;99.90
18974;DHT22;9621;48.690;9.466;2022-07-29T02:03:26;15.30;99.90
18974;DHT22;9621;48.690;9.466;2022-07-29T02:05:55;15.20;99.90
18974;DHT22;9621;48.690;9.466;2022-07-29T02:08:23;15.20;99.90
18974;DHT22;9621;48.690;9.466;2022-07-29T02:10:53;15.10;99.90
18974;DHT22;9621;48.690;9.466;2022-07-29T02:13:22;15.10;99.90
18974;DHT22;9621;48.690;9.466;2022-07-29T02:15:51;15.10;99.90
18974;DHT22;9621;48.690;9.466;2022-07-29T02:18:21;15.10;99.90
18974;DHT22;9621;48.690;9.466;2022-07-29T02:20:52;15.00;99.90
18974;DHT22;9621;48.690;9.466;2022-07-29T02:23:21;14.90;99.90
18974;DHT22;9621;48.690;9.466;2022-07-29T02:25:50;14.90;99.90
18974;DHT22;9621;48.690;9.466;2022-07-29T02:28:19;14.90;99.90
18974;DHT22;9621;48.690;9.466;2022-07-29T02:30:47;14.90;99.90
18974;DHT22;9621;48.690;9.466;2022-07-29T02:33:16;14.80;99.90
18974;DHT22;9621;48.690;9.466;2022-07-29T02:35:46;14.80;99.90
18974;DHT22;9621;48.690;9.466;2022-07-29T02:38:16;14.80;99.90
18974;DHT22;9621;48.690;9.466;2022-07-29T02:41:04;14.70;99.90
18974;DHT22;9621;48.690;9.466;2022-07-29T02:43:34;14.70;99.90
18974;DHT22;9621;48.690;9.466;2022-07-29T02:46:05;14.70;99.90
18974;DHT22;9621;48.690;9.466;2022-07-29T02:48:36;14.60;99.90
18974;DHT22;9621;48.690;9.466;2022-07-29T02:51:10;14.60;99.90
18974;DHT22;9621;48.690;9.466;2022-07-29T02:53:38;14.60;99.90
18974;DHT22;9621;48.690;9.466;2022-07-29T02:56:11;14.50;99.90
18974;DHT22;9621;48.690;9.466;2022-07-29T02:58:41;14.50;99.90
18974;DHT22;9621;48.690;9.466;2022-07-29T03:01:15;14.50;99.90
18974;DHT22;9621;48.690;9.466;2022-07-29T03:03:44;14.50;99.90
18974;DHT22;9621;48.690;9.466;2022-07-29T03:06:15;14.40;99.90
18974;DHT22;9621;48.690;9.466;2022-07-29T03:08:42;14.40;99.90
18974;DHT22;9621;48.690;9.466;2022-07-29T03:11:11;14.40;99.90
18974;DHT22;9621;48.690;9.466;2022-07-29T03:13:39;14.30;99.90
18974;DHT22;9621;48.690;9.466;2022-07-29T03:16:07;14.30;99.90
18974;DHT22;9621;48.690;9.466;2022-07-29T03:18:34;14.30;99.90
18974;DHT22;9621;48.690;9.466;2022-07-29T03:21:03;14.30;99.90
18974;DHT22;9621;48.690;9.466;2022-07-29T03:23:31;14.20;99.90
18974;DHT22;9621;48.690;9.466;2022-07-29T03:25:58;14.20;99.90
18974;DHT22;9621;48.690;9.466;2022-07-29T03:28:26;14.20;99.90
18974;DHT22;9621;48.690;9.466;2022-07-29T03:30:53;14.20;99.90
18974;DHT22;9621;48.690;9.466;2022-07-29T03:33:20;14.10;99.90
18974;DHT22;9621;48.690;9.466;2022-07-29T03:35:47;14.10;99.90
18974;DHT22;9621;48.690;9.466;2022-07-29T03:38:14;14.10;99.90
18974;DHT22;9621;48.690;9.466;2022-07-29T03:40:48;14.20;99.90
18974;DHT22;9621;48.690;9.466;2022-07-29T03:43:17;14.00;99.90
18974;DHT22;9621;48.690;9.466;2022-07-29T03:45:47;14.10;99.90
18974;DHT22;9621;48.690;9.466;2022-07-29T03:48:19;14.10;99.90
18974;DHT22;9621;48.690;9.466;2022-07-29T03:50:47;14.10;99.90
18974;DHT22;9621;48.690;9.466;2022-07-29T03:53:15;14.10;99.90
18974;DHT22;9621;48.690;9.466;2022-07-29T03:55:47;14.10;99.90
18974;DHT22;9621;48.690;9.466;2022-07-29T03:58:16;14.10;99.90
18974;DHT22;9621;48.690;9.466;2022-07-29T04:00:43;14.20;99.90
18974;DHT22;9621;48.690;9.466;2022-07-29T04:03:11;14.20;99.90
18974;DHT22;9621;48.690;9.466;2022-07-29T04:05:39;14.20;99.90
18974;DHT22;9621;48.690;9.466;2022-07-29T04:08:06;14.20;99.90
18974;DHT22;9621;48.690;9.466;2022-07-29T04:10:33;14.30;99.90
18974;DHT22;9621;48.690;9.466;2022-07-29T04:13:01;14.30;99.90
18974;DHT22;9621;48.690;9.466;2022-07-29T04:15:28;14.30;99.90
18974;DHT22;9621;48.690;9.466;2022-07-29T04:17:55;14.30;99.90
18974;DHT22;9621;48.690;9.466;2022-07-29T04:20:22;14.30;99.90
18974;DHT22;9621;48.690;9.466;2022-07-29T04:22:49;14.30;99.90
18974;DHT22;9621;48.690;9.466;2022-07-29T04:25:16;14.30;99.90
18974;DHT22;9621;48.690;9.466;2022-07-29T04:27:43;14.30;99.90
18974;DHT22;9621;48.690;9.466;2022-07-29T04:30:25;14.20;99.90
18974;DHT22;9621;48.690;9.466;2022-07-29T04:32:52;14.20;99.90
18974;DHT22;9621;48.690;9.466;2022-07-29T04:35:19;14.20;99.90
18974;DHT22;9621;48.690;9.466;2022-07-29T04:37:46;14.20;99.90
18974;DHT22;9621;48.690;9.466;2022-07-29T04:40:14;14.20;99.90
18974;DHT22;9621;48.690;9.466;2022-07-29T04:42:41;14.30;99.90
18974;DHT22;9621;48.690;9.466;2022-07-29T04:45:08;14.30;99.90
18974;DHT22;9621;48.690;9.466;2022-07-29T04:47:37;14.30;99.90
18974;DHT22;9621;48.690;9.466;2022-07-29T04:50:05;14.30;99.90
18974;DHT22;9621;48.690;9.466;2022-07-29T04:52:32;14.30;99.90
18974;DHT22;9621;48.690;9.466;2022-07-29T04:55:00;14.30;99.90
18974;DHT22;9621;48.690;9.466;2022-07-29T04:57:27;14.60;99.90
18974;DHT22;9621;48.690;9.466;2022-07-29T04:59:54;14.80;99.90
18974;DHT22;9621;48.690;9.466;2022-07-29T05:02:21;15.10;99.90
18974;DHT22;9621;48.690;9.466;2022-07-29T05:04:49;15.20;99.90
18974;DHT22;9621;48.690;9.466;2022-07-29T05:07:16;15.40;99.90
18974;DHT22;9621;48.690;9.466;2022-07-29T05:09:44;15.40;99.90
18974;DHT22;9621;48.690;9.466;2022-07-29T05:12:11;15.50;99.90
18974;DHT22;9621;48.690;9.466;2022-07-29T05:14:38;15.60;99.90
18974;DHT22;9621;48.690;9.466;2022-07-29T05:17:05;15.80;99.90
18974;DHT22;9621;48.690;9.466;2022-07-29T05:19:32;16.10;99.90
18974;DHT22;9621;48.690;9.466;2022-07-29T05:22:00;16.40;99.90
18974;DHT22;9621;48.690;9.466;2022-07-29T05:24:27;16.70;99.90
18974;DHT22;9621;48.690;9.466;2022-07-29T05:26:54;16.90;99.90
18974;DHT22;9621;48.690;9.466;2022-07-29T05:29:21;17.00;99.90
18974;DHT22;9621;48.690;9.466;2022-07-29T05:31:48;17.20;99.90
18974;DHT22;9621;48.690;9.466;2022-07-29T05:34:17;17.40;99.90
18974;DHT22;9621;48.690;9.466;2022-07-29T05:36:44;17.80;99.90
18974;DHT22;9621;48.690;9.466;2022-07-29T05:39:13;18.10;99.90
18974;DHT22;9621;48.690;9.466;2022-07-29T05:41:40;18.60;99.90
18974;DHT22;9621;48.690;9.466;2022-07-29T05:44:07;18.90;99.90
18974;DHT22;9621;48.690;9.466;2022-07-29T05:46:34;19.10;99.90
18974;DHT22;9621;48.690;9.466;2022-07-29T05:49:01;19.30;99.90
18974;DHT22;9621;48.690;9.466;2022-07-29T05:51:29;19.40;99.90
18974;DHT22;9621;48.690;9.466;2022-07-29T05:53:56;19.50;99.90
18974;DHT22;9621;48.690;9.466;2022-07-29T05:56:25;19.50;99.90
18974;DHT22;9621;48.690;9.466;2022-07-29T05:58:52;19.50;99.90
18974;DHT22;9621;48.690;9.466;2022-07-29T06:01:19;19.50;99.90
18974;DHT22;9621;48.690;9.466;2022-07-29T06:03:46;19.50;99.90
18974;DHT22;9621;48.690;9.466;2022-07-29T06:06:13;19.90;99.90
18974;DHT22;9621;48.690;9.466;2022-07-29T06:08:40;20.40;99.90
18974;DHT22;9621;48.690;9.466;2022-07-29T06:11:07;20.90;99.90
18974;DHT22;9621;48.690;9.466;2022-07-29T06:13:36;21.30;99.90
18974;DHT22;9621;48.690;9.466;2022-07-29T06:16:04;21.80;99.90
18974;DHT22;9621;48.690;9.466;2022-07-29T06:18:31;21.80;99.90
18974;DHT22;9621;48.690;9.466;2022-07-29T06:20:58;22.00;99.90
18974;DHT22;9621;48.690;9.466;2022-07-29T06:23:25;22.20;99.90
18974;DHT22;9621;48.690;9.466;2022-07-29T06:25:52;22.30;99.30
18974;DHT22;9621;48.690;9.466;2022-07-29T06:28:19;22.30;99.10
18974;DHT22;9621;48.690;9.466;2022-07-29T06:30:47;22.20;99.30
18974;DHT22;9621;48.690;9.466;2022-07-29T06:33:18;22.00;99.30
18974;DHT22;9621;48.690;9.466;2022-07-29T06:35:45;22.00;99.20
18974;DHT22;9621;48.690;9.466;2022-07-29T06:38:13;21.90;99.90
18974;DHT22;9621;48.690;9.466;2022-07-29T06:40:41;22.10;99.90
18974;DHT22;9621;48.690;9.466;2022-07-29T06:43:29;22.40;99.90
18974;DHT22;9621;48.690;9.466;2022-07-29T06:45:59;22.80;99.90
18974;DHT22;9621;48.690;9.466;2022-07-29T06:48:27;23.30;99.10
18974;DHT22;9621;48.690;9.466;2022-07-29T06:50:54;23.70;98.90
18974;DHT22;9621;48.690;9.466;2022-07-29T06:53:21;24.00;97.90
18974;DHT22;9621;48.690;9.466;2022-07-29T06:55:49;24.20;97.40
18974;DHT22;9621;48.690;9.466;2022-07-29T06:58:16;24.50;96.60
18974;DHT22;9621;48.690;9.466;2022-07-29T07:00:45;24.70;96.40
18974;DHT22;9621;48.690;9.466;2022-07-29T07:03:14;24.90;95.40
18974;DHT22;9621;48.690;9.466;2022-07-29T07:05:41;25.10;94.70
18974;DHT22;9621;48.690;9.466;2022-07-29T07:08:10;25.40;94.70
18974;DHT22;9621;48.690;9.466;2022-07-29T07:10:37;25.40;94.60
18974;DHT22;9621;48.690;9.466;2022-07-29T07:13:04;25.70;93.90
18974;DHT22;9621;48.690;9.466;2022-07-29T07:15:32;26.00;93.30
18974;DHT22;9621;48.690;9.466;2022-07-29T07:17:59;26.20;92.30
18974;DHT22;9621;48.690;9.466;2022-07-29T07:20:27;26.50;92.00
18974;DHT22;9621;48.690;9.466;2022-07-29T07:22:54;26.80;91.20
18974;DHT22;9621;48.690;9.466;2022-07-29T07:25:21;27.10;91.50
18974;DHT22;9621;48.690;9.466;2022-07-29T07:27:49;27.40;91.10
18974;DHT22;9621;48.690;9.466;2022-07-29T07:30:16;27.60;89.50
18974;DHT22;9621;48.690;9.466;2022-07-29T07:32:43;27.80;88.90
18974;DHT22;9621;48.690;9.466;2022-07-29T07:35:10;27.90;88.70
18974;DHT22;9621;48.690;9.466;2022-07-29T07:37:39;28.10;85.70
18974;DHT22;9621;48.690;9.466;2022-07-29T07:40:09;28.30;84.50
18974;DHT22;9621;48.690;9.466;2022-07-29T07:42:37;28.50;85.30
18974;DHT22;9621;48.690;9.466;2022-07-29T07:45:04;28.80;85.40
18974;DHT22;9621;48.690;9.466;2022-07-29T07:47:32;29.00;83.30
18974;DHT22;9621;48.690;9.466;2022-07-29T07:49:59;28.90;81.60
18974;DHT22;9621;48.690;9.466;2022-07-29T07:52:26;28.80;80.50
18974;DHT22;9621;48.690;9.466;2022-07-29T07:54:55;28.60;80.80
18974;DHT22;9621;48.690;9.466;2022-07-29T07:57:22;28.30;79.80
18974;DHT22;9621;48.690;9.466;2022-07-29T07:59:49;28.10;81.30
18974;DHT22;9621;48.690;9.466;2022-07-29T08:02:16;28.10;81.50
18974;DHT22;9621;48.690;9.466;2022-07-29T08:04:42;28.20;80.40
18974;DHT22;9621;48.690;9.466;2022-07-29T08:07:09;28.40;80.30
18974;DHT22;9621;48.690;9.466;2022-07-29T08:09:36;28.60;79.60
18974;DHT22;9621;48.690;9.466;2022-07-29T08:12:05;28.70;79.10
18974;DHT22;9621;48.690;9.466;2022-07-29T08:14:32;29.00;77.70
18974;DHT22;9621;48.690;9.466;2022-07-29T08:17:00;29.20;79.00
18974;DHT22;9621;48.690;9.466;2022-07-29T08:19:27;29.50;79.10
18974;DHT22;9621;48.690;9.466;2022-07-29T08:21:54;29.80;77.90
18974;DHT22;9621;48.690;9.466;2022-07-29T08:24:21;30.20;76.30
18974;DHT22;9621;48.690;9.466;2022-07-29T08:27:07;30.50;75.00
18974;DHT22;9621;48.690;9.466;2022-07-29T08:29:34;30.70;72.50
18974;DHT22;9621;48.690;9.466;2022-07-29T08:32:02;30.80;73.50
18974;DHT22;9621;48.690;9.466;2022-07-29T08:34:29;31.00;72.80
18974;DHT22;9621;48.690;9.466;2022-07-29T08:36:56;31.00;72.10
18974;DHT22;9621;48.690;9.466;2022-07-29T08:39:24;31.10;71.80
18974;DHT22;9621;48.690;9.466;2022-07-29T08:41:51;31.10;69.40
18974;DHT22;9621;48.690;9.466;2022-07-29T08:44:21;31.10;69.90
18974;DHT22;9621;48.690;9.466;2022-07-29T08:46:49;31.00;68.90
18974;DHT22;9621;48.690;9.466;2022-07-29T08:49:16;31.00;69.40
18974;DHT22;9621;48.690;9.466;2022-07-29T08:51:43;31.00;69.60
18974;DHT22;9621;48.690;9.466;2022-07-29T08:54:11;30.90;68.50
18974;DHT22;9621;48.690;9.466;2022-07-29T08:56:43;30.90;70.20
18974;DHT22;9621;48.690;9.466;2022-07-29T08:59:12;31.00;71.00
18974;DHT22;9621;48.690;9.466;2022-07-29T09:01:43;31.10;69.00
18974;DHT22;9621;48.690;9.466;2022-07-29T09:04:11;31.20;68.50
18974;DHT22;9621;48.690;9.466;2022-07-29T09:06:43;31.40;69.60
18974;DHT22;9621;48.690;9.466;2022-07-29T09:09:11;31.50;65.30
18974;DHT22;9621;48.690;9.466;2022-07-29T09:11:39;31.60;67.80
18974;DHT22;9621;48.690;9.466;2022-07-29T09:14:07;31.60;68.10
18974;DHT22;9621;48.690;9.466;2022-07-29T09:17:01;31.60;66.90
18974;DHT22;9621;48.690;9.466;2022-07-29T09:19:29;31.60;64.40
18974;DHT22;9621;48.690;9.466;2022-07-29T09:21:58;31.50;68.20
18974;DHT22;9621;48.690;9.466;2022-07-29T09:24:26;31.50;68.40
18974;DHT22;9621;48.690;9.466;2022-07-29T09:26:53;31.60;67.10
18974;DHT22;9621;48.690;9.466;2022-07-29T09:29:23;31.70;65.20
18974;DHT22;9621;48.690;9.466;2022-07-29T09:31:53;31.80;65.10
18974;DHT22;9621;48.690;9.466;2022-07-29T09:34:27;31.90;63.20
18974;DHT22;9621;48.690;9.466;2022-07-29T09:36:57;31.90;64.10
18974;DHT22;9621;48.690;9.466;2022-07-29T09:39:28;31.90;64.10
18974;DHT22;9621;48.690;9.466;2022-07-29T09:41:57;31.80;62.50
18974;DHT22;9621;48.690;9.466;2022-07-29T09:44:25;31.80;64.00
18974;DHT22;9621;48.690;9.466;2022-07-29T09:46:59;31.80;64.10
18974;DHT22;9621;48.690;9.466;2022-07-29T09:49:31;31.90;60.60
18974;DHT22;9621;48.690;9.466;2022-07-29T09:52:00;32.00;63.80
18974;DHT22;9621;48.690;9.466;2022-07-29T09:54:29;32.20;61.70
18974;DHT22;9621;48.690;9.466;2022-07-29T09:57:02;32.30;60.20
18974;DHT22;9621;48.690;9.466;2022-07-29T09:59:29;32.20;59.60
18974;DHT22;9621;48.690;9.466;2022-07-29T10:01:58;32.10;59.60
18974;DHT22;9621;48.690;9.466;2022-07-29T10:04:37;31.90;57.70
18974;DHT22;9621;48.690;9.466;2022-07-29T10:07:05;31.70;56.10
18974;DHT22;9621;48.690;9.466;2022-07-29T10:09:34;31.40;59.80
18974;DHT22;9621;48.690;9.466;2022-07-29T10:12:09;31.20;57.90
18974;DHT22;9621;48.690;9.466;2022-07-29T10:14:41;31.10;56.50
18974;DHT22;9621;48.690;9.466;2022-07-29T10:17:10;31.00;58.30
18974;DHT22;9621;48.690;9.466;2022-07-29T10:19:38;31.00;57.80
18974;DHT22;9621;48.690;9.466;2022-07-29T10:22:09;31.00;59.50
18974;DHT22;9621;48.690;9.466;2022-07-29T10:24:37;31.20;59.40
18974;DHT22;9621;48.690;9.466;2022-07-29T10:27:06;31.30;59.20
18974;DHT22;9621;48.690;9.466;2022-07-29T10:29:34;31.40;58.50
18974;DHT22;9621;48.690;9.466;2022-07-29T10:32:31;31.40;57.90
18974;DHT22;9621;48.690;9.466;2022-07-29T10:35:18;31.30;54.90
18974;DHT22;9621;48.690;9.466;2022-07-29T10:38:04;31.30;55.50
18974;DHT22;9621;48.690;9.466;2022-07-29T10:40:41;31.30;56.90
18974;DHT22;9621;48.690;9.466;2022-07-29T10:43:37;31.40;58.60
18974;DHT22;9621;48.690;9.466;2022-07-29T10:46:05;31.80;61.50
18974;DHT22;9621;48.690;9.466;2022-07-29T10:48:34;32.30;60.80
18974;DHT22;9621;48.690;9.466;2022-07-29T10:51:03;32.80;57.60
18974;DHT22;9621;48.690;9.466;2022-07-29T10:53:47;33.10;56.80
18974;DHT22;9621;48.690;9.466;2022-07-29T10:56:25;33.40;53.10
18974;DHT22;9621;48.690;9.466;2022-07-29T11:01:56;33.30;51.00
18974;DHT22;9621;48.690;9.466;2022-07-29T11:05:02;33.20;53.40
18974;DHT22;9621;48.690;9.466;2022-07-29T11:07:31;33.00;52.00
18974;DHT22;9621;48.690;9.466;2022-07-29T11:10:22;32.70;52.90
18974;DHT22;9621;48.690;9.466;2022-07-29T11:12:49;32.50;51.60
18974;DHT22;9621;48.690;9.466;2022-07-29T11:15:19;32.30;53.10
18974;DHT22;9621;48.690;9.466;2022-07-29T11:18:06;32.00;53.30
18974;DHT22;9621;48.690;9.466;2022-07-29T11:20:37;31.70;52.40
18974;DHT22;9621;48.690;9.466;2022-07-29T11:23:22;31.50;53.60
18974;DHT22;9621;48.690;9.466;2022-07-29T11:26:16;31.30;53.20
18974;DHT22;9621;48.690;9.466;2022-07-29T11:29:00;31.00;54.00
18974;DHT22;9621;48.690;9.466;2022-07-29T11:31:34;30.80;53.00
18974;DHT22;9621;48.690;9.466;2022-07-29T11:34:22;30.50;53.90
18974;DHT22;9621;48.690;9.466;2022-07-29T11:37:17;30.20;53.60
18974;DHT22;9621;48.690;9.466;2022-07-29T11:39:46;29.80;53.70
18974;DHT22;9621;48.690;9.466;2022-07-29T11:42:42;29.40;55.10
18974;DHT22;9621;48.690;9.466;2022-07-29T11:45:10;28.90;55.50
18974;DHT22;9621;48.690;9.466;2022-07-29T11:47:40;28.50;57.40
18974;DHT22;9621;48.690;9.466;2022-07-29T11:50:12;28.10;55.80
18974;DHT22;9621;48.690;9.466;2022-07-29T11:52:43;27.60;54.70
18974;DHT22;9621;48.690;9.466;2022-07-29T11:55:12;26.90;53.40
18974;DHT22;9621;48.690;9.466;2022-07-29T11:57:46;26.20;54.20
18974;DHT22;9621;48.690;9.466;2022-07-29T12:00:22;25.50;55.20
18974;DHT22;9621;48.690;9.466;2022-07-29T12:02:50;24.90;56.40
18974;DHT22;9621;48.690;9.466;2022-07-29T12:05:17;24.30;59.00
18974;DHT22;9621;48.690;9.466;2022-07-29T12:07:46;23.80;59.30
18974;DHT22;9621;48.690;9.466;2022-07-29T12:10:14;23.30;60.40
18974;DHT22;9621;48.690;9.466;2022-07-29T12:12:41;22.90;61.20
18974;DHT22;9621;48.690;9.466;2022-07-29T12:15:15;21.90;63.10
18974;DHT22;9621;48.690;9.466;2022-07-29T12:17:45;22.40;67.00
18974;DHT22;9621;48.690;9.466;2022-07-29T12:20:12;22.20;67.60
18974;DHT22;9621;48.690;9.466;2022-07-29T12:22:42;22.00;68.70
18974;DHT22;9621;48.690;9.466;2022-07-29T12:25:13;21.90;69.50
18974;DHT22;9621;48.690;9.466;2022-07-29T12:27:42;21.80;73.00
18974;DHT22;9621;48.690;9.466;2022-07-29T12:30:11;21.70;72.50
18974;DHT22;9621;48.690;9.466;2022-07-29T12:32:43;21.70;72.50
18974;DHT22;9621;48.690;9.466;2022-07-29T12:35:12;21.60;74.30
18974;DHT22;9621;48.690;9.466;2022-07-29T12:37:42;21.60;75.50
18974;DHT22;9621;48.690;9.466;2022-07-29T12:40:12;21.70;75.30
18974;DHT22;9621;48.690;9.466;2022-07-29T12:42:40;21.80;76.20
18974;DHT22;9621;48.690;9.466;2022-07-29T12:45:07;21.90;76.90
18974;DHT22;9621;48.690;9.466;2022-07-29T12:47:52;22.10;76.70
18974;DHT22;9621;48.690;9.466;2022-07-29T12:50:19;22.30;74.30
18974;DHT22;9621;48.690;9.466;2022-07-29T12:52:47;22.60;75.20
18974;DHT22;9621;48.690;9.466;2022-07-29T12:55:15;22.80;75.20
18974;DHT22;9621;48.690;9.466;2022-07-29T12:57:46;22.90;73.30
18974;DHT22;9621;48.690;9.466;2022-07-29T13:00:14;23.00;72.50
18974;DHT22;9621;48.690;9.466;2022-07-29T13:02:42;23.00;72.30
18974;DHT22;9621;48.690;9.466;2022-07-29T13:05:10;23.00;73.50
18974;DHT22;9621;48.690;9.466;2022-07-29T13:07:38;22.90;72.50
18974;DHT22;9621;48.690;9.466;2022-07-29T13:10:15;22.70;72.70
18974;DHT22;9621;48.690;9.466;2022-07-29T13:13:01;22.60;73.60
18974;DHT22;9621;48.690;9.466;2022-07-29T13:15:29;22.40;73.20
18974;DHT22;9621;48.690;9.466;2022-07-29T13:17:56;22.20;73.90
18974;DHT22;9621;48.690;9.466;2022-07-29T13:20:25;22.10;75.70
18974;DHT22;9621;48.690;9.466;2022-07-29T13:22:53;21.90;76.20
18974;DHT22;9621;48.690;9.466;2022-07-29T13:25:32;21.80;76.80
18974;DHT22;9621;48.690;9.466;2022-07-29T13:27:59;21.70;77.00
18974;DHT22;9621;48.690;9.466;2022-07-29T13:30:26;21.60;77.40
18974;DHT22;9621;48.690;9.466;2022-07-29T13:32:54;21.50;77.70
18974;DHT22;9621;48.690;9.466;2022-07-29T13:35:21;21.30;77.80
18974;DHT22;9621;48.690;9.466;2022-07-29T13:37:48;21.10;78.90
18974;DHT22;9621;48.690;9.466;2022-07-29T13:40:15;20.90;79.90
18974;DHT22;9621;48.690;9.466;2022-07-29T13:42:44;20.80;81.30
18974;DHT22;9621;48.690;9.466;2022-07-29T13:45:11;20.70;83.30
18974;DHT22;9621;48.690;9.466;2022-07-29T13:47:38;20.70;83.00
18974;DHT22;9621;48.690;9.466;2022-07-29T13:50:07;20.70;84.10
18974;DHT22;9621;48.690;9.466;2022-07-29T13:52:35;20.90;84.20
18974;DHT22;9621;48.690;9.466;2022-07-29T13:55:03;21.00;84.40
18974;DHT22;9621;48.690;9.466;2022-07-29T13:57:31;21.10;84.00
18974;DHT22;9621;48.690;9.466;2022-07-29T14:00:00;21.60;83.80
18974;DHT22;9621;48.690;9.466;2022-07-29T14:02:27;21.20;83.10
18974;DHT22;9621;48.690;9.466;2022-07-29T14:04:54;21.30;83.10
18974;DHT22;9621;48.690;9.466;2022-07-29T14:07:21;21.30;83.90
18974;DHT22;9621;48.690;9.466;2022-07-29T14:09:48;21.30;84.30
18974;DHT22;9621;48.690;9.466;2022-07-29T14:12:16;21.30;85.00
18974;DHT22;9621;48.690;9.466;2022-07-29T14:14:43;21.30;85.20
18974;DHT22;9621;48.690;9.466;2022-07-29T14:17:11;21.30;85.00
18974;DHT22;9621;48.690;9.466;2022-07-29T14:19:38;21.20;85.20
18974;DHT22;9621;48.690;9.466;2022-07-29T14:22:07;21.20;83.90
18974;DHT22;9621;48.690;9.466;2022-07-29T14:24:34;21.10;85.50
18974;DHT22;9621;48.690;9.466;2022-07-29T14:27:02;21.10;85.90
18974;DHT22;9621;48.690;9.466;2022-07-29T14:29:29;21.10;86.70
18974;DHT22;9621;48.690;9.466;2022-07-29T14:31:56;21.10;87.90
18974;DHT22;9621;48.690;9.466;2022-07-29T14:34:25;21.20;87.50
18974;DHT22;9621;48.690;9.466;2022-07-29T14:36:52;21.20;87.20
18974;DHT22;9621;48.690;9.466;2022-07-29T14:39:21;21.20;87.00
18974;DHT22;9621;48.690;9.466;2022-07-29T14:41:48;21.30;87.90
18974;DHT22;9621;48.690;9.466;2022-07-29T14:44:16;21.40;88.30
18974;DHT22;9621;48.690;9.466;2022-07-29T14:46:43;21.60;88.90
18974;DHT22;9621;48.690;9.466;2022-07-29T14:49:10;21.50;88.90
18974;DHT22;9621;48.690;9.466;2022-07-29T14:51:38;21.60;89.70
18974;DHT22;9621;48.690;9.466;2022-07-29T14:54:06;21.60;89.10
18974;DHT22;9621;48.690;9.466;2022-07-29T14:56:33;21.70;88.50
18974;DHT22;9621;48.690;9.466;2022-07-29T14:59:00;21.80;88.00
18974;DHT22;9621;48.690;9.466;2022-07-29T15:01:26;21.70;87.50
18974;DHT22;9621;48.690;9.466;2022-07-29T15:03:54;21.80;87.50
18974;DHT22;9621;48.690;9.466;2022-07-29T15:06:21;21.80;88.00
18974;DHT22;9621;48.690;9.466;2022-07-29T15:08:49;21.80;88.20
18974;DHT22;9621;48.690;9.466;2022-07-29T15:11:16;21.90;87.70
18974;DHT22;9621;48.690;9.466;2022-07-29T15:13:43;22.00;87.50
18974;DHT22;9621;48.690;9.466;2022-07-29T15:16:10;22.10;87.90
18974;DHT22;9621;48.690;9.466;2022-07-29T15:18:37;22.10;87.20
18974;DHT22;9621;48.690;9.466;2022-07-29T15:21:04;22.20;87.50
18974;DHT22;9621;48.690;9.466;2022-07-29T15:23:32;22.10;87.50
18974;DHT22;9621;48.690;9.466;2022-07-29T15:26:03;22.00;87.50
18974;DHT22;9621;48.690;9.466;2022-07-29T15:28:30;22.10;87.70
18974;DHT22;9621;48.690;9.466;2022-07-29T15:30:57;22.00;88.20
18974;DHT22;9621;48.690;9.466;2022-07-29T15:33:25;22.00;88.70
18974;DHT22;9621;48.690;9.466;2022-07-29T15:35:53;22.10;89.10
18974;DHT22;9621;48.690;9.466;2022-07-29T15:38:20;22.00;88.70
18974;DHT22;9621;48.690;9.466;2022-07-29T15:40:47;22.00;89.20
18974;DHT22;9621;48.690;9.466;2022-07-29T15:43:15;22.00;89.50
18974;DHT22;9621;48.690;9.466;2022-07-29T15:45:42;22.00;90.20
18974;DHT22;9621;48.690;9.466;2022-07-29T15:48:30;22.00;89.90
18974;DHT22;9621;48.690;9.466;2022-07-29T15:50:58;22.00;90.10
18974;DHT22;9621;48.690;9.466;2022-07-29T15:53:25;21.90;90.30
18974;DHT22;9621;48.690;9.466;2022-07-29T15:55:52;21.90;90.20
18974;DHT22;9621;48.690;9.466;2022-07-29T15:58:21;21.80;90.10
18974;DHT22;9621;48.690;9.466;2022-07-29T16:00:48;21.80;90.20
18974;DHT22;9621;48.690;9.466;2022-07-29T16:03:15;21.80;90.40